Time;durP1;ratioP1;P1;durP2;ratioP2;P2;SDS_P1;SDS_P2;PMS_P1;PMS_P2;Temp;Humidity;BMP_temperature;BMP_pressure;BME280_temperature;BME280_humidity;BME280_pressure;Samples;Min_cycle;Max_cycle;Signal;HPM_P1;HPM_P2
2021/10/21 00:01:15;;;;;;;5.73;3.57;;;16.90;99.90;;;;;;4996244;28;20187;-82
2021/10/21 00:03:41;;;;;;;4.47;3.10;;;16.90;99.90;;;;;;4994474;28;20264;-83
2021/10/21 00:06:06;;;;;;;4.30;3.30;;;16.90;99.90;;;;;;4980809;28;20247;-84
2021/10/21 00:08:32;;;;;;;5.97;3.83;;;16.90;99.90;;;;;;4996985;28;20183;-83
2021/10/21 00:10:58;;;;;;;6.87;3.30;;;16.90;99.90;;;;;;4996514;28;20299;-82
2021/10/21 00:13:24;;;;;;;4.90;3.60;;;16.90;99.90;;;;;;4995820;28;20868;-84
2021/10/21 00:15:50;;;;;;;6.30;3.60;;;16.90;99.90;;;;;;4996430;28;20666;-83
2021/10/21 00:18:16;;;;;;;4.63;3.73;;;16.90;99.90;;;;;;4998394;28;20406;-83
2021/10/21 00:20:41;;;;;;;4.23;3.40;;;16.90;99.90;;;;;;4995397;28;20190;-85
2021/10/21 00:23:07;;;;;;;4.03;2.90;;;16.90;99.90;;;;;;4979638;28;20188;-83
2021/10/21 00:25:33;;;;;;;4.00;3.10;;;16.90;99.90;;;;;;4995194;28;20205;-83
2021/10/21 00:27:59;;;;;;;4.63;3.17;;;16.90;99.90;;;;;;5004230;28;20958;-84
2021/10/21 00:30:28;;;;;;;4.80;3.73;;;16.80;99.90;;;;;;4999772;28;20189;-84
2021/10/21 00:32:53;;;;;;;3.47;2.83;;;16.90;99.90;;;;;;5001187;28;20163;-83
2021/10/21 00:35:19;;;;;;;4.70;3.13;;;16.90;99.90;;;;;;5008759;28;20953;-85
2021/10/21 00:37:44;;;;;;;3.50;2.60;;;16.90;99.90;;;;;;5007188;28;20196;-83
2021/10/21 00:40:11;;;;;;;4.30;3.40;;;16.90;99.90;;;;;;5002867;28;20176;-82
2021/10/21 00:42:37;;;;;;;4.33;3.30;;;16.80;99.90;;;;;;5001671;28;20240;-83
2021/10/21 00:45:03;;;;;;;6.70;4.20;;;16.90;99.90;;;;;;4984922;28;20494;-83
2021/10/21 00:47:29;;;;;;;4.53;3.83;;;16.90;99.90;;;;;;4997224;28;20438;-84
2021/10/21 00:49:55;;;;;;;3.83;3.17;;;16.90;99.90;;;;;;4997552;28;20420;-83
2021/10/21 00:52:20;;;;;;;3.57;2.90;;;16.80;99.90;;;;;;4996414;28;20880;-84
2021/10/21 00:54:46;;;;;;;3.70;2.73;;;16.80;99.90;;;;;;4980436;28;20242;-84
2021/10/21 00:57:13;;;;;;;4.00;3.40;;;16.90;99.90;;;;;;4980803;28;20242;-84
2021/10/21 00:59:41;;;;;;;3.03;2.73;;;16.90;99.90;;;;;;4980270;28;20474;-84
2021/10/21 01:02:07;;;;;;;3.83;2.90;;;16.80;99.90;;;;;;4996443;28;20437;-84
2021/10/21 01:04:33;;;;;;;5.27;3.37;;;16.80;99.90;;;;;;4980781;28;20426;-85
2021/10/21 01:06:59;;;;;;;4.20;3.33;;;16.80;99.90;;;;;;4998790;28;20431;-82
2021/10/21 01:09:24;;;;;;;2.83;2.30;;;16.80;99.90;;;;;;4997714;28;20270;-83
2021/10/21 01:11:51;;;;;;;3.33;3.00;;;16.80;99.90;;;;;;4997553;28;20546;-83
2021/10/21 01:14:17;;;;;;;5.40;3.43;;;16.80;99.90;;;;;;4998590;28;20595;-83
2021/10/21 01:16:43;;;;;;;3.73;3.27;;;16.80;99.90;;;;;;4999910;28;20438;-84
2021/10/21 01:19:15;;;;;;;5.50;3.50;;;16.80;99.90;;;;;;4982057;28;20897;-84
2021/10/21 01:21:42;;;;;;;3.20;2.90;;;16.90;99.90;;;;;;4998590;28;20493;-84
2021/10/21 01:24:08;;;;;;;3.57;2.73;;;16.80;99.90;;;;;;4998575;28;20415;-84
2021/10/21 01:26:33;;;;;;;4.30;3.60;;;16.80;99.90;;;;;;4998438;28;21040;-84
2021/10/21 01:28:59;;;;;;;3.20;2.90;;;16.80;99.90;;;;;;5017732;28;20191;-84
2021/10/21 01:31:25;;;;;;;4.50;3.30;;;16.90;99.90;;;;;;5017505;28;20148;-83
2021/10/21 01:33:50;;;;;;;4.87;3.40;;;16.90;99.90;;;;;;5009817;28;20275;-84
2021/10/21 01:36:16;;;;;;;4.53;3.33;;;16.90;99.90;;;;;;5008833;28;20263;-83
2021/10/21 01:38:42;;;;;;;3.03;2.70;;;16.90;99.90;;;;;;4981129;28;20291;-83
2021/10/21 01:41:08;;;;;;;3.80;3.10;;;16.90;99.90;;;;;;4998011;28;20250;-84
2021/10/21 01:43:43;;;;;;;6.00;3.07;;;16.90;99.90;;;;;;4998578;28;20460;-83
2021/10/21 01:46:09;;;;;;;4.40;3.73;;;16.90;99.90;;;;;;5009190;28;20239;-85
2021/10/21 01:48:35;;;;;;;3.20;2.90;;;16.80;99.90;;;;;;5005207;28;20434;-84
2021/10/21 01:51:01;;;;;;;3.53;2.67;;;16.90;99.90;;;;;;4980504;28;20256;-83
2021/10/21 01:53:26;;;;;;;3.10;2.57;;;16.90;99.90;;;;;;4996523;28;20451;-84
2021/10/21 01:55:52;;;;;;;3.10;2.70;;;16.90;99.90;;;;;;4980119;28;20191;-82
2021/10/21 01:58:18;;;;;;;4.90;2.60;;;16.90;99.90;;;;;;4996033;28;20216;-83
2021/10/21 02:00:43;;;;;;;3.30;2.80;;;16.90;99.90;;;;;;4995223;28;20196;-85
2021/10/21 02:03:12;;;;;;;4.50;2.73;;;16.90;99.90;;;;;;4979225;28;20384;-85
2021/10/21 02:05:37;;;;;;;3.20;2.57;;;16.90;99.90;;;;;;4979647;28;20207;-83
2021/10/21 02:08:03;;;;;;;3.03;2.73;;;16.90;99.90;;;;;;4998231;28;20467;-84
2021/10/21 02:10:29;;;;;;;3.77;2.60;;;16.90;99.90;;;;;;4996672;28;20520;-83
2021/10/21 02:12:55;;;;;;;2.40;2.20;;;16.90;99.90;;;;;;4979667;28;20432;-84
2021/10/21 02:15:20;;;;;;;3.13;2.20;;;16.90;99.90;;;;;;4996587;28;20179;-84
2021/10/21 02:17:46;;;;;;;2.77;2.20;;;17.00;99.90;;;;;;4981837;28;20205;-84
2021/10/21 02:20:13;;;;;;;2.80;1.97;;;16.90;99.90;;;;;;4998882;28;20189;-84
2021/10/21 02:22:44;;;;;;;2.10;1.90;;;17.00;99.90;;;;;;4981396;28;20435;-83
2021/10/21 02:25:12;;;;;;;3.77;2.07;;;17.00;99.90;;;;;;4979519;28;21005;-83
2021/10/21 02:27:38;;;;;;;3.30;2.23;;;17.00;99.90;;;;;;4983445;28;21001;-83
2021/10/21 02:30:05;;;;;;;1.97;1.53;;;17.00;99.90;;;;;;4994989;28;20423;-83
2021/10/21 02:32:31;;;;;;;8.87;2.53;;;17.00;99.90;;;;;;4995042;28;20418;-82
2021/10/21 02:34:56;;;;;;;2.83;2.10;;;17.00;99.90;;;;;;4979549;28;20485;-82
2021/10/21 02:37:22;;;;;;;2.23;1.60;;;17.00;99.90;;;;;;4979784;28;20540;-83
2021/10/21 02:39:47;;;;;;;2.27;1.87;;;17.00;99.90;;;;;;4997449;28;20633;-83
2021/10/21 02:42:13;;;;;;;2.03;1.60;;;17.00;99.90;;;;;;4995986;28;20176;-83
2021/10/21 02:44:39;;;;;;;2.87;1.60;;;17.00;99.90;;;;;;4980073;28;20652;-83
2021/10/21 02:47:04;;;;;;;2.60;1.80;;;17.00;99.90;;;;;;4996083;28;20233;-83
2021/10/21 02:49:30;;;;;;;2.63;2.00;;;17.00;99.90;;;;;;4997180;28;20180;-83
2021/10/21 02:51:56;;;;;;;1.70;1.50;;;17.00;99.90;;;;;;4978468;28;20213;-82
2021/10/21 02:54:22;;;;;;;1.90;1.40;;;17.00;99.90;;;;;;4995092;28;20258;-83
2021/10/21 02:56:47;;;;;;;1.90;1.73;;;17.00;99.90;;;;;;4996690;28;20864;-83
2021/10/21 02:59:13;;;;;;;2.70;1.57;;;17.00;99.90;;;;;;4979794;28;20182;-83
2021/10/21 03:01:39;;;;;;;2.57;1.70;;;17.00;99.90;;;;;;4979136;28;20281;-83
2021/10/21 03:04:04;;;;;;;2.10;1.87;;;17.00;99.90;;;;;;4979788;28;20182;-83
2021/10/21 03:06:30;;;;;;;1.83;1.67;;;17.00;99.90;;;;;;4996298;28;20590;-83
2021/10/21 03:08:56;;;;;;;1.70;1.43;;;17.00;99.90;;;;;;4996306;28;20639;-83
2021/10/21 03:11:21;;;;;;;1.70;1.40;;;17.00;99.90;;;;;;4996277;28;20176;-83
2021/10/21 03:13:47;;;;;;;2.13;1.93;;;16.90;99.90;;;;;;4995831;28;20652;-83
2021/10/21 03:16:13;;;;;;;2.10;1.80;;;16.90;99.90;;;;;;4979208;28;20291;-84
2021/10/21 03:18:41;;;;;;;2.47;2.07;;;16.90;99.90;;;;;;4994666;28;20181;-84
2021/10/21 03:21:06;;;;;;;2.00;1.47;;;16.90;99.90;;;;;;4993496;28;20197;-85
2021/10/21 03:23:32;;;;;;;2.67;1.90;;;16.90;99.90;;;;;;4995071;28;20417;-83
2021/10/21 03:25:57;;;;;;;2.10;1.80;;;16.90;99.90;;;;;;4994749;28;20271;-84
2021/10/21 03:28:23;;;;;;;2.47;1.80;;;16.90;99.90;;;;;;4994103;28;20182;-84
2021/10/21 03:30:48;;;;;;;3.10;1.97;;;16.90;99.90;;;;;;4994338;28;20183;-84
2021/10/21 03:33:14;;;;;;;2.63;2.00;;;16.90;99.90;;;;;;4994096;28;20182;-83
2021/10/21 03:35:40;;;;;;;2.67;1.90;;;16.90;99.90;;;;;;4995518;28;20182;-83
2021/10/21 03:38:06;;;;;;;1.83;1.47;;;16.90;99.90;;;;;;4995667;28;20287;-83
2021/10/21 03:40:32;;;;;;;1.90;1.77;;;16.90;99.90;;;;;;5003956;28;20159;-85
2021/10/21 03:42:58;;;;;;;2.20;2.00;;;16.90;99.90;;;;;;4997316;28;20913;-85
2021/10/21 03:45:23;;;;;;;2.20;1.80;;;16.90;99.90;;;;;;4977760;28;20215;-84
2021/10/21 03:47:49;;;;;;;2.53;1.77;;;16.90;99.90;;;;;;4993640;28;20434;-82
2021/10/21 03:50:15;;;;;;;3.27;2.13;;;16.90;99.90;;;;;;4995397;28;20184;-82
2021/10/21 03:52:43;;;;;;;3.50;1.73;;;16.90;99.90;;;;;;4977379;28;20188;-83
2021/10/21 03:55:09;;;;;;;1.57;1.10;;;16.90;99.90;;;;;;4993155;28;20420;-83
2021/10/21 03:57:35;;;;;;;3.80;2.03;;;16.90;99.90;;;;;;4993483;28;20476;-83
2021/10/21 04:00:01;;;;;;;1.90;1.60;;;16.90;99.90;;;;;;4993811;28;20429;-84
2021/10/21 04:02:26;;;;;;;1.60;1.50;;;16.90;99.90;;;;;;4995579;28;20190;-82
2021/10/21 04:04:52;;;;;;;1.30;1.17;;;16.90;99.90;;;;;;4995333;28;20462;-84
2021/10/21 04:07:17;;;;;;;2.13;1.47;;;17.00;99.90;;;;;;4998318;28;20200;-82
2021/10/21 04:09:43;;;;;;;1.57;1.43;;;17.00;99.90;;;;;;4981672;28;20171;-81
2021/10/21 04:12:12;;;;;;;1.67;1.17;;;17.00;99.90;;;;;;4999075;28;20194;-80
2021/10/21 04:14:37;;;;;;;3.93;1.73;;;17.00;99.90;;;;;;4998610;28;20183;-81
2021/10/21 04:17:03;;;;;;;2.90;1.23;;;17.00;99.90;;;;;;4999184;28;20434;-83
2021/10/21 04:19:28;;;;;;;1.97;1.43;;;17.00;99.90;;;;;;4998178;28;20262;-84
2021/10/21 04:21:54;;;;;;;1.30;0.80;;;17.00;99.90;;;;;;4999478;28;20274;-83
2021/10/21 04:24:19;;;;;;;1.17;1.07;;;16.90;99.90;;;;;;4998708;28;20188;-82
2021/10/21 04:26:45;;;;;;;1.10;0.77;;;16.90;99.90;;;;;;5000008;28;20386;-83
2021/10/21 04:29:11;;;;;;;1.37;1.27;;;16.80;99.90;;;;;;4982351;28;20199;-82
2021/10/21 04:31:39;;;;;;;3.40;2.30;;;16.70;99.90;;;;;;4997138;28;20446;-82
2021/10/21 04:34:05;;;;;;;2.90;1.63;;;16.60;99.90;;;;;;4980967;28;20582;-83
2021/10/21 04:36:31;;;;;;;3.80;1.07;;;16.50;99.90;;;;;;4982013;28;20460;-82
2021/10/21 04:38:56;;;;;;;1.07;0.90;;;16.50;99.90;;;;;;4983443;28;20191;-83
2021/10/21 04:41:22;;;;;;;1.50;1.10;;;16.40;99.90;;;;;;4998055;28;20182;-82
2021/10/21 04:43:47;;;;;;;2.17;1.00;;;16.50;99.90;;;;;;4997648;28;20206;-83
2021/10/21 04:46:13;;;;;;;1.50;0.87;;;16.40;99.90;;;;;;4998639;28;20206;-83
2021/10/21 04:48:39;;;;;;;2.73;0.90;;;16.40;99.90;;;;;;5000287;28;20174;-81
2021/10/21 04:51:06;;;;;;;2.43;0.80;;;16.30;99.90;;;;;;5000792;28;20171;-84
2021/10/21 04:53:32;;;;;;;1.53;1.20;;;16.30;99.90;;;;;;4982441;28;20414;-83
2021/10/21 04:55:58;;;;;;;1.77;0.90;;;16.20;99.90;;;;;;4999012;28;20433;-83
2021/10/21 04:58:23;;;;;;;0.90;0.70;;;16.20;99.90;;;;;;5000525;28;20171;-83
2021/10/21 05:00:49;;;;;;;2.00;0.90;;;16.20;99.90;;;;;;4999304;28;20190;-83
2021/10/21 05:03:14;;;;;;;1.20;0.90;;;16.20;99.90;;;;;;4998406;28;20210;-82
2021/10/21 05:05:41;;;;;;;1.40;0.90;;;16.10;99.90;;;;;;4999658;28;20215;-83
2021/10/21 05:08:06;;;;;;;1.90;1.20;;;16.10;99.90;;;;;;4998856;28;20523;-83
2021/10/21 05:10:32;;;;;;;1.20;0.90;;;16.10;99.90;;;;;;4998551;28;20497;-82
2021/10/21 05:12:58;;;;;;;2.00;0.80;;;15.90;99.90;;;;;;5000254;28;20175;-83
2021/10/21 05:15:24;;;;;;;1.43;0.93;;;16.00;99.90;;;;;;4987000;28;20202;-83
2021/10/21 05:17:51;;;;;;;1.40;0.97;;;16.00;99.90;;;;;;4972695;28;20817;-83
2021/10/21 05:20:17;;;;;;;1.17;1.00;;;16.00;99.90;;;;;;4999698;28;20185;-84
2021/10/21 05:22:43;;;;;;;1.87;0.97;;;16.00;99.90;;;;;;4981878;28;20449;-84
2021/10/21 05:25:08;;;;;;;3.90;0.80;;;15.90;99.90;;;;;;4981454;28;20461;-84
2021/10/21 05:27:36;;;;;;;5.20;1.30;;;16.00;99.90;;;;;;4999558;28;20182;-84
2021/10/21 05:30:06;;;;;;;4.37;0.90;;;16.00;99.90;;;;;;4982790;28;20587;-84
2021/10/21 05:32:31;;;;;;;1.57;0.90;;;15.90;99.90;;;;;;4983859;28;20422;-84
2021/10/21 05:34:57;;;;;;;2.20;1.13;;;15.90;99.90;;;;;;4959636;28;20436;-84
2021/10/21 05:37:23;;;;;;;1.00;0.80;;;16.00;99.90;;;;;;4982455;28;20225;-84
2021/10/21 05:39:48;;;;;;;1.43;0.97;;;16.00;99.90;;;;;;4982516;28;20646;-84
2021/10/21 05:42:14;;;;;;;1.93;1.03;;;16.00;99.90;;;;;;4965987;28;20677;-82
2021/10/21 05:44:40;;;;;;;1.43;1.33;;;16.00;99.90;;;;;;4982239;28;20181;-83
2021/10/21 05:47:06;;;;;;;1.60;0.90;;;16.00;99.90;;;;;;4993160;28;20201;-83
2021/10/21 05:49:37;;;;;;;1.40;0.80;;;16.00;99.90;;;;;;4993944;28;20425;-82
2021/10/21 05:52:03;;;;;;;1.93;1.17;;;16.00;99.90;;;;;;5004392;28;20499;-82
2021/10/21 05:54:28;;;;;;;1.87;1.37;;;16.10;99.90;;;;;;5010278;28;20456;-81
2021/10/21 05:56:54;;;;;;;1.50;0.93;;;16.10;99.90;;;;;;4999697;28;20442;-83
2021/10/21 05:59:19;;;;;;;2.03;1.23;;;16.10;99.90;;;;;;5019068;28;20175;-82
2021/10/21 06:01:47;;;;;;;2.47;1.50;;;16.10;99.90;;;;;;4999287;28;20186;-81
2021/10/21 06:04:13;;;;;;;1.50;0.90;;;16.10;99.90;;;;;;4993452;28;20237;-82
2021/10/21 06:06:39;;;;;;;1.40;1.00;;;16.10;99.90;;;;;;5000012;28;20463;-82
2021/10/21 06:09:05;;;;;;;2.30;1.40;;;16.20;99.90;;;;;;4987054;28;20642;-81
2021/10/21 06:11:34;;;;;;;3.43;1.20;;;16.20;99.90;;;;;;4963092;28;20507;-83
2021/10/21 06:14:01;;;;;;;1.40;1.13;;;16.20;99.90;;;;;;4972912;28;20453;-82
2021/10/21 06:16:27;;;;;;;1.10;1.00;;;16.30;99.90;;;;;;4982449;28;20441;-82
2021/10/21 06:18:53;;;;;;;1.83;1.20;;;16.30;99.90;;;;;;4993287;28;20425;-83
2021/10/21 06:21:22;;;;;;;1.83;1.40;;;16.30;99.90;;;;;;4993403;28;20224;-82
2021/10/21 06:23:48;;;;;;;1.00;0.83;;;16.40;99.90;;;;;;4997850;28;20178;-82
2021/10/21 06:26:16;;;;;;;1.13;1.00;;;16.40;99.90;;;;;;5012060;28;20468;-85
2021/10/21 06:28:50;;;;;;;1.60;1.03;;;16.50;99.90;;;;;;4992766;28;20598;-81
2021/10/21 06:31:17;;;;;;;2.53;1.10;;;16.60;99.90;;;;;;4998322;28;20441;-82
2021/10/21 06:33:44;;;;;;;3.40;1.30;;;16.60;99.90;;;;;;4979198;28;20504;-83
2021/10/21 06:36:10;;;;;;;1.50;1.10;;;16.60;99.90;;;;;;4983144;28;20434;-84
2021/10/21 06:38:37;;;;;;;2.43;1.30;;;16.60;99.90;;;;;;5019397;28;20582;-84
2021/10/21 06:41:03;;;;;;;5.63;0.90;;;16.70;99.90;;;;;;5001723;28;20952;-83
2021/10/21 06:43:28;;;;;;;4.63;1.10;;;16.60;99.90;;;;;;4966287;28;20429;-82
2021/10/21 06:45:54;;;;;;;1.20;0.80;;;16.60;99.90;;;;;;5002289;28;20211;-84
2021/10/21 06:48:22;;;;;;;1.73;1.30;;;16.60;99.90;;;;;;4996950;28;20167;-85
2021/10/21 06:50:50;;;;;;;1.70;1.00;;;16.70;99.90;;;;;;4987200;28;20183;-81
2021/10/21 06:53:16;;;;;;;1.50;1.37;;;17.30;99.90;;;;;;4968215;28;20433;-82
2021/10/21 06:55:41;;;;;;;1.43;0.97;;;17.00;99.90;;;;;;4992029;28;20838;-83
2021/10/21 06:58:07;;;;;;;1.57;0.87;;;16.80;99.90;;;;;;4995579;28;20576;-82
2021/10/21 07:00:39;;;;;;;1.20;0.90;;;16.90;99.90;;;;;;4979449;28;20195;-84
2021/10/21 07:03:04;;;;;;;1.40;0.97;;;16.80;99.90;;;;;;4980518;28;20194;-81
2021/10/21 07:05:35;;;;;;;1.30;0.90;;;16.60;99.90;;;;;;4983033;28;20458;-83
2021/10/21 07:08:01;;;;;;;0.90;0.70;;;16.60;99.90;;;;;;4972185;28;20256;-83
2021/10/21 07:10:27;;;;;;;3.50;1.20;;;16.50;99.90;;;;;;4998431;28;20469;-83
2021/10/21 07:12:52;;;;;;;1.70;1.10;;;16.40;99.90;;;;;;4979935;28;20654;-81
2021/10/21 07:15:18;;;;;;;1.37;1.00;;;16.40;99.90;;;;;;4999096;28;20377;-82
2021/10/21 07:17:43;;;;;;;1.10;0.90;;;16.40;99.90;;;;;;4984756;28;20222;-82
2021/10/21 07:20:13;;;;;;;0.93;0.70;;;16.30;99.90;;;;;;4966164;28;20677;-83
2021/10/21 07:22:38;;;;;;;1.40;0.90;;;16.20;99.90;;;;;;4975514;28;20202;-81
2021/10/21 07:25:04;;;;;;;2.30;1.20;;;16.10;99.90;;;;;;4997428;28;20464;-82
2021/10/21 07:27:30;;;;;;;2.73;1.30;;;16.10;99.90;;;;;;4980269;28;20282;-81
2021/10/21 07:29:56;;;;;;;1.00;0.80;;;16.00;99.90;;;;;;4980012;28;20181;-83
2021/10/21 07:32:21;;;;;;;1.30;0.77;;;16.00;99.90;;;;;;4979729;28;20178;-82
2021/10/21 07:34:47;;;;;;;1.60;1.20;;;15.90;99.90;;;;;;4996305;28;20171;-84
2021/10/21 07:37:13;;;;;;;6.30;1.30;;;15.90;99.90;;;;;;4955485;28;20208;-83
2021/10/21 07:39:40;;;;;;;3.00;0.87;;;15.90;99.90;;;;;;5000405;28;20277;-84
2021/10/21 07:42:10;;;;;;;1.67;0.80;;;16.00;99.90;;;;;;5003578;28;20432;-83
2021/10/21 07:44:46;;;;;;;6.60;1.77;;;16.00;99.90;;;;;;4981068;28;20822;-81
2021/10/21 07:47:12;;;;;;;1.60;0.97;;;16.00;99.90;;;;;;4986404;28;20509;-81
2021/10/21 07:49:38;;;;;;;1.87;0.90;;;16.10;99.90;;;;;;4986099;28;20481;-81
2021/10/21 07:52:04;;;;;;;1.57;0.70;;;16.10;99.90;;;;;;4968736;28;20422;-81
2021/10/21 07:54:31;;;;;;;3.37;1.20;;;16.10;99.90;;;;;;4987728;28;20425;-82
2021/10/21 07:56:58;;;;;;;2.53;0.80;;;16.10;99.90;;;;;;4967966;28;20545;-83
2021/10/21 07:59:28;;;;;;;1.30;0.77;;;16.20;99.90;;;;;;4991434;28;20493;-83
2021/10/21 08:02:00;;;;;;;4.67;1.10;;;16.10;99.90;;;;;;5000396;28;20464;-81
2021/10/21 08:04:26;;;;;;;2.90;1.53;;;16.10;99.90;;;;;;5001937;28;20952;-83
2021/10/21 08:06:56;;;;;;;2.20;0.90;;;16.10;99.90;;;;;;5006335;28;20461;-85
2021/10/21 08:09:30;;;;;;;1.63;0.83;;;16.20;99.90;;;;;;4989130;28;20420;-85
2021/10/21 08:12:02;;;;;;;2.60;0.63;;;16.20;99.90;;;;;;4991056;28;20410;-84
2021/10/21 08:14:28;;;;;;;3.20;0.83;;;16.20;99.90;;;;;;4999888;28;20446;-84
2021/10/21 08:16:55;;;;;;;1.30;0.90;;;16.30;99.90;;;;;;4999149;28;20453;-85
2021/10/21 08:19:21;;;;;;;5.73;0.93;;;16.20;99.90;;;;;;5010323;28;20432;-83
2021/10/21 08:21:47;;;;;;;1.30;0.70;;;16.30;99.90;;;;;;4993554;28;20433;-84
2021/10/21 08:24:14;;;;;;;1.27;0.50;;;16.30;99.90;;;;;;5019800;28;20994;-84
2021/10/21 08:26:41;;;;;;;2.00;0.70;;;16.30;99.90;;;;;;5004016;28;20464;-82
2021/10/21 08:29:07;;;;;;;0.80;0.50;;;16.40;99.90;;;;;;5017195;28;20434;-85
2021/10/21 08:31:33;;;;;;;4.20;1.40;;;16.50;99.90;;;;;;4987243;28;20420;-82
2021/10/21 08:33:58;;;;;;;2.07;1.00;;;16.50;99.90;;;;;;5006241;28;20434;-83
2021/10/21 08:36:24;;;;;;;1.17;0.80;;;16.40;99.90;;;;;;5013908;28;20206;-83
2021/10/21 08:38:50;;;;;;;1.83;1.10;;;16.40;99.90;;;;;;5006204;28;20274;-82
2021/10/21 08:41:16;;;;;;;3.47;1.53;;;16.40;99.90;;;;;;5010516;28;20182;-84
2021/10/21 08:43:44;;;;;;;3.33;1.70;;;16.40;99.90;;;;;;4978739;28;20218;-85
2021/10/21 08:46:16;;;;;;;3.20;1.10;;;16.50;99.90;;;;;;4997362;28;20872;-83
2021/10/21 08:48:44;;;;;;;2.63;0.93;;;16.40;99.90;;;;;;4991138;28;20441;-84
2021/10/21 08:51:10;;;;;;;1.10;0.80;;;16.40;99.90;;;;;;4971552;28;20430;-82
2021/10/21 08:53:36;;;;;;;1.97;0.90;;;16.30;99.90;;;;;;5012743;28;20425;-82
2021/10/21 08:56:04;;;;;;;7.90;1.00;;;16.40;99.90;;;;;;5008563;28;20449;-83
2021/10/21 08:58:30;;;;;;;2.03;1.10;;;16.40;99.90;;;;;;4992114;28;20496;-84
2021/10/21 09:01:20;;;;;;;1.83;1.10;;;16.50;99.90;;;;;;5010823;28;20461;-83
2021/10/21 09:03:58;;;;;;;5.10;1.27;;;16.50;99.90;;;;;;5006475;28;20190;-81
2021/10/21 09:09:21;;;;;;;1.43;0.70;;;16.40;99.90;;;;;;4989506;28;20456;-82
2021/10/21 09:12:11;;;;;;;2.07;1.03;;;16.50;99.90;;;;;;4988346;28;20636;-82
2021/10/21 09:14:42;;;;;;;1.63;0.90;;;16.40;99.90;;;;;;4989019;28;20429;-82
2021/10/21 09:17:09;;;;;;;1.67;0.83;;;16.40;99.90;;;;;;4989532;28;20508;-82
2021/10/21 09:19:36;;;;;;;1.70;0.80;;;16.40;99.90;;;;;;4995160;28;20417;-82
2021/10/21 09:22:07;;;;;;;2.37;0.70;;;16.40;99.90;;;;;;4993786;28;20477;-82
2021/10/21 09:24:57;;;;;;;2.47;1.23;;;16.30;99.90;;;;;;5015784;28;20413;-82
2021/10/21 09:27:45;;;;;;;0.90;0.50;;;16.30;99.90;;;;;;5016062;28;20796;-83
2021/10/21 09:30:11;;;;;;;2.07;0.90;;;16.30;99.90;;;;;;5008907;28;20437;-83
2021/10/21 09:32:38;;;;;;;5.77;1.30;;;16.30;99.90;;;;;;5016129;28;20429;-83
2021/10/21 09:35:08;;;;;;;1.70;0.83;;;16.30;99.90;;;;;;5009864;28;20202;-82
2021/10/21 09:37:42;;;;;;;2.10;1.10;;;16.30;99.90;;;;;;5003598;28;20435;-84
2021/10/21 09:40:12;;;;;;;1.40;0.90;;;16.20;99.90;;;;;;5003734;28;20439;-85
2021/10/21 09:42:44;;;;;;;1.77;0.90;;;16.30;99.90;;;;;;5005879;28;20440;-85
2021/10/21 09:45:17;;;;;;;2.10;1.23;;;16.30;99.90;;;;;;4990534;28;20466;-84
2021/10/21 09:47:57;;;;;;;1.30;0.60;;;16.30;99.90;;;;;;4993493;28;20437;-82
2021/10/21 09:50:35;;;;;;;2.97;0.77;;;16.40;99.90;;;;;;4996856;28;20425;-84
2021/10/21 09:53:09;;;;;;;3.27;1.17;;;16.30;99.90;;;;;;4990376;28;20479;-82
2021/10/21 09:55:38;;;;;;;3.50;0.90;;;16.30;99.90;;;;;;5001651;28;20425;-81
2021/10/21 09:58:10;;;;;;;3.10;0.80;;;16.40;99.90;;;;;;4994347;28;20696;-82
2021/10/21 10:00:38;;;;;;;3.67;1.30;;;16.30;99.90;;;;;;5008176;28;20459;-82
2021/10/21 10:03:19;;;;;;;1.20;0.70;;;16.30;99.90;;;;;;4984202;28;20489;-82
2021/10/21 10:05:52;;;;;;;3.00;0.80;;;16.30;99.90;;;;;;4992832;28;20457;-83
2021/10/21 10:08:25;;;;;;;1.60;0.70;;;16.20;99.90;;;;;;4953902;28;20430;-83
2021/10/21 10:11:03;;;;;;;4.30;1.03;;;16.30;99.90;;;;;;4983779;28;20426;-82
2021/10/21 10:13:28;;;;;;;2.17;0.73;;;16.20;99.90;;;;;;4993969;28;21162;-82
2021/10/21 10:15:55;;;;;;;1.10;0.80;;;16.30;99.90;;;;;;4968110;28;20425;-81
2021/10/21 10:18:33;;;;;;;2.70;0.70;;;16.30;99.90;;;;;;4989286;28;20178;-84
2021/10/21 10:21:10;;;;;;;1.03;0.70;;;16.20;99.90;;;;;;4991970;28;20420;-85
2021/10/21 10:23:40;;;;;;;1.57;0.60;;;16.10;99.90;;;;;;4985922;28;20426;-83
2021/10/21 10:26:06;;;;;;;1.67;0.50;;;16.10;99.90;;;;;;5004938;28;20572;-83
2021/10/21 10:28:53;;;;;;;1.00;0.60;;;16.10;99.90;;;;;;4993722;28;20434;-83
2021/10/21 10:31:59;;;;;;;0.90;0.60;;;16.20;99.90;;;;;;5013594;28;20216;-84
2021/10/21 10:34:34;;;;;;;1.10;0.70;;;16.20;99.90;;;;;;4954465;29;20419;-84
2021/10/21 10:37:19;;;;;;;11.27;1.73;;;16.20;99.90;;;;;;4957580;29;20463;-85
2021/10/21 10:39:56;;;;;;;1.53;0.97;;;16.00;99.90;;;;;;4964155;28;20440;-84
2021/10/21 10:42:32;;;;;;;1.67;0.70;;;15.90;99.90;;;;;;4983185;28;20428;-85
2021/10/21 10:44:57;;;;;;;1.90;1.33;;;15.90;99.90;;;;;;5001279;28;20409;-83
2021/10/21 10:47:47;;;;;;;2.87;1.13;;;15.90;99.90;;;;;;5008308;28;20956;-83
2021/10/21 10:50:21;;;;;;;4.20;1.93;;;15.80;99.90;;;;;;4996369;28;20268;-82
2021/10/21 10:52:52;;;;;;;1.77;0.87;;;15.80;99.90;;;;;;4991781;28;20409;-84
2021/10/21 10:55:35;;;;;;;2.70;0.80;;;15.70;99.90;;;;;;4995155;28;20436;-82
2021/10/21 10:58:00;;;;;;;3.80;0.90;;;15.60;99.90;;;;;;4976235;28;20452;-82
2021/10/21 11:00:37;;;;;;;3.77;1.87;;;15.40;99.90;;;;;;4975908;28;20493;-83
2021/10/21 11:03:04;;;;;;;1.53;0.70;;;15.20;99.90;;;;;;5007373;28;20193;-83
2021/10/21 11:05:47;;;;;;;1.77;1.00;;;14.90;99.90;;;;;;5012544;28;20469;-82
2021/10/21 11:08:18;;;;;;;1.40;0.80;;;14.70;99.90;;;;;;5000807;28;20489;-84
2021/10/21 11:10:54;;;;;;;3.70;1.15;;;14.60;99.90;;;;;;4988911;28;20423;-83
2021/10/21 11:13:21;;;;;;;1.58;1.10;;;14.50;99.90;;;;;;5009850;28;20569;-85
2021/10/21 11:15:47;;;;;;;2.15;0.60;;;14.30;99.90;;;;;;4988076;28;20185;-84
2021/10/21 11:18:38;;;;;;;1.10;0.80;;;14.30;99.90;;;;;;4998448;28;20181;-88
2021/10/21 11:21:05;;;;;;;1.05;0.63;;;14.30;99.90;;;;;;5017034;28;20186;-85
2021/10/21 11:23:31;;;;;;;1.45;0.70;;;14.10;99.90;;;;;;5015862;28;20173;-87
2021/10/21 11:26:01;;;;;;;2.17;0.70;;;14.20;99.90;;;;;;4994038;28;20214;-86
2021/10/21 11:28:33;;;;;;;1.00;0.60;;;14.20;99.90;;;;;;4992336;28;20478;-86
2021/10/21 11:31:00;;;;;;;1.75;0.60;;;14.20;99.90;;;;;;4974421;28;20178;-86
2021/10/21 11:33:26;;;;;;;1.33;0.70;;;14.10;99.90;;;;;;5014245;28;20167;-84
2021/10/21 11:35:52;;;;;;;1.13;0.60;;;13.90;99.90;;;;;;4990516;28;20256;-85
2021/10/21 11:38:21;;;;;;;1.10;0.83;;;13.90;99.90;;;;;;4990977;28;20224;-85
2021/10/21 11:40:58;;;;;;;1.30;0.65;;;13.80;99.90;;;;;;5000286;28;20414;-84
2021/10/21 11:43:36;;;;;;;0.98;0.57;;;13.90;99.90;;;;;;4988637;28;20171;-84
2021/10/21 11:46:04;;;;;;;1.15;0.60;;;13.70;99.90;;;;;;4984770;28;20212;-85
2021/10/21 11:48:35;;;;;;;3.20;0.60;;;13.50;99.90;;;;;;4989815;28;20183;-85
2021/10/21 11:51:03;;;;;;;1.85;0.95;;;13.70;99.90;;;;;;5009709;28;20178;-85
2021/10/21 11:53:30;;;;;;;0.80;0.50;;;13.70;99.90;;;;;;5008152;28;20165;-84
2021/10/21 11:55:57;;;;;;;1.45;0.70;;;13.60;99.90;;;;;;4984955;28;20514;-84
2021/10/21 11:58:28;;;;;;;1.95;0.90;;;13.70;99.90;;;;;;5008638;28;20638;-84
2021/10/21 12:01:00;;;;;;;1.80;0.82;;;13.70;99.90;;;;;;4995540;28;20608;-83
2021/10/21 12:03:36;;;;;;;1.00;0.60;;;13.80;99.90;;;;;;4982311;28;20226;-84
2021/10/21 12:06:03;;;;;;;1.80;0.70;;;13.90;99.90;;;;;;5000295;28;20210;-85
2021/10/21 12:08:30;;;;;;;1.33;0.55;;;14.10;99.90;;;;;;4987447;28;20213;-83
2021/10/21 12:11:06;;;;;;;1.88;1.00;;;14.00;99.90;;;;;;5005188;28;20202;-84
2021/10/21 12:13:37;;;;;;;1.02;0.68;;;13.80;99.90;;;;;;5009386;28;20233;-82
2021/10/21 12:16:10;;;;;;;3.70;1.00;;;13.90;99.90;;;;;;5008458;28;20631;-83
2021/10/21 12:18:37;;;;;;;1.33;0.70;;;13.90;99.90;;;;;;5010613;28;20637;-83
2021/10/21 12:21:05;;;;;;;1.50;0.80;;;13.80;99.90;;;;;;4987979;28;20174;-83
2021/10/21 12:23:35;;;;;;;1.27;0.60;;;13.80;99.90;;;;;;4994018;28;20220;-82
2021/10/21 12:26:08;;;;;;;3.33;0.77;;;13.70;99.90;;;;;;5006643;28;20198;-85
2021/10/21 12:28:46;;;;;;;1.27;1.02;;;13.70;99.90;;;;;;5009015;28;20178;-86
2021/10/21 12:31:23;;;;;;;0.88;0.75;;;13.70;99.90;;;;;;5004773;28;20175;-82
2021/10/21 12:34:01;;;;;;;2.10;1.42;;;13.70;99.90;;;;;;5012110;28;20655;-82
2021/10/21 12:36:30;;;;;;;4.30;1.25;;;13.80;99.90;;;;;;4996244;28;20405;-82
2021/10/21 12:39:06;;;;;;;1.90;0.93;;;13.70;99.90;;;;;;5011954;28;20205;-81
2021/10/21 12:41:58;;;;;;;1.00;0.73;;;13.80;99.90;;;;;;5005176;28;20181;-82
2021/10/21 12:44:29;;;;;;;1.48;0.75;;;13.80;99.90;;;;;;4999100;28;20632;-82
2021/10/21 12:47:22;;;;;;;1.20;0.95;;;13.70;99.90;;;;;;5005941;28;20569;-81
2021/10/21 12:49:56;;;;;;;1.80;0.70;;;13.70;99.90;;;;;;4986700;28;20193;-81
2021/10/21 12:52:31;;;;;;;1.77;0.90;;;13.70;99.90;;;;;;4992847;28;20179;-80
2021/10/21 12:55:10;;;;;;;2.35;1.10;;;13.70;99.90;;;;;;4979408;28;20269;-82
2021/10/21 12:57:54;;;;;;;3.28;1.10;;;13.60;99.90;;;;;;5000278;28;20221;-85